Hlavní strana
METAR-TAF:

METAR-TAF

Letiště :

Bodensee

Friedrichshafen, Německo

zeměpisná šířka: 47-40N, zeměpisná délka: 009-31E, výška: 416 m

Aktuální stav počasí

Zpráva byla vytvořena před 33 minutami, v 06:20 UTC
Severoseverovýchodní vítr 10 kt
Teplota 21°C
Vlhkost vzduchu 78%
Tlak 1014 hPa
Viditelnost 10 km a více
Žádná oblačnost pod 1500 m, nevyskytují se cumulonimby.

METAR: EDNY 190620Z 03010KT CAVOK 21/17 Q1014

Čas: 08:53 (06:53 UTC)

Předpověď počasí

Zpráva byla vytvořena před 1 hodinou a 53 minutami, v 05:00 UTC
Předpověď platná od 19 v 06 UTC do 19 v 15 UTC
vítr z různých směrů 3 kt
Viditelnost 10 km a více
Žádná oblačnost pod 1500 m, nevyskytují se cumulonimby.
Změna
od 19 v 09 UTC do 19 v 11 UTC
Západní vítr 5 kt
Pravděpodobnost 30% :
Dočasný
od 19 v 12 UTC do 19 v 15 UTC
Západní vítr 10 kt

TAF: EDNY 190500Z 1906/1915 VRB03KT CAVOK BECMG 1909/1911 26005KT PROB30 TEMPO 1912/1915 28010KT

Stav a předpovědi počasí z více než 4 000 letišť (zprávy METAR a TAF).

Červené a žluté tečky na mapě představují dostupné meteorologické stanice.

Když kurzor umístíte na tečku, zobrazí se název stanice.

Pak kliknutím zobrazíte stav a předpověď počasí.

Chcete-li změnit mapu, kliknutím na zelené tlačítko se znaménkem +mapu přiblížíte, kliknutím na zelené tlačítko se znaménkem – mapu oddálíte a kliknutím na zelené šipky přejdete na sousední mapy.


METAR-TAF: